This is the latest recevied weather packets stored in our database for station/object FACT. If no packets are shown the sender has not sent any weather packets the latest 10 day(s).
| Time | Temp. | Humidity | Pressure | Rain* | Wind** | Luminosity | Snow |
|---|---|---|---|---|---|---|---|
| 1778234003 | 17.78° C | 59% | 1018 hPa | - | - | - | - |
| 1778233405 | 17.78° C | 59% | 1018 hPa | - | - | - | - |
| 1778232803 | 17.78° C | 59% | 1018 hPa | - | - | - | - |
| 1778232204 | 16.67° C | 63% | 1018 hPa | - | - | - | - |
| 1778231604 | 16.67° C | 63% | 1018 hPa | - | - | - | - |
| 1778231002 | 15.56° C | 67% | 1019 hPa | - | - | - | - |
| 1778230403 | 15.56° C | 67% | 1019 hPa | - | - | - | - |
| 1778229805 | 15.56° C | 67% | 1019 hPa | - | - | - | - |
| 1778229203 | 15.56° C | 67% | 1019 hPa | - | - | - | - |
| 1778228600 | 15.56° C | 67% | 1019 hPa | - | - | - | - |
| 1778228001 | 15.56° C | 67% | 1019 hPa | - | - | - | - |
| 1778227405 | 15.56° C | 67% | 1019 hPa | - | - | - | - |
| 1778226801 | 13.89° C | 76% | 1019 hPa | - | - | - | - |
| 1778226205 | 13.89° C | 76% | 1019 hPa | - | - | - | - |
| 1778225604 | 13.89° C | 76% | 1019 hPa | - | - | - | - |
| 1778225001 | 11.67° C | 87% | 1019 hPa | - | - | - | - |
| 1778224404 | 11.67° C | 87% | 1019 hPa | - | - | - | - |
| 1778223802 | 11.67° C | 87% | 1019 hPa | - | - | - | - |
| 1778223202 | 8.89° C | 93% | 1018 hPa | - | - | - | - |
| 1778222603 | 8.89° C | 93% | 1018 hPa | - | - | - | - |
| 1778222003 | 8.89° C | 93% | 1018 hPa | - | - | - | - |
| 1778221406 | 8.89° C | 93% | 1018 hPa | - | - | - | - |
| 1778220807 | 8.89° C | 93% | 1018 hPa | - | - | - | - |
| 1778220205 | 10° C | 87% | 1018 hPa | - | - | - | - |
| 1778219603 | 10° C | 87% | 1018 hPa | - | - | - | - |
* Rain since midnight (hover to see other rain measurements)
** Current wind speed in m/s (hover to see current wind gust speed)